Metar Cercanos

 

LEPA - Palma De Mallorc, Spain
Distance from station: ONO 38km
Actualización: 23/09/2018 16:30
Despejado
Despejado
 Viento del OSO
Viento: OSO 15 km/h
Temperatura: 28°C
Indice Calor: 30°C
Rocío: 21°C
Humedad: 66%
Barómetro: 1021 hPa
Resumen: Despejado
Visibility: greater than 10 km
2018/09/23 14:30 LEPA 231430Z 24008KT CAVOK 28/21 Q1021 NOSIG
LEMH - Mahon/Menorca Is, Spain
Distance from station: ENE 105km
Actualización: 23/09/2018 16:30
Parcialmente nuboso
Parcialmente nuboso
 Viento del OSO
Viento: OSO 15 km/h
Temperatura: 26°C
Rocío: 22°C
Humedad: 79%
Barómetro: 1021 hPa
Clouds: Parcialmente nuboso
Visibility: 10 km
Cloud details: Few Clouds 549 m
Parcialmente nuboso 792 m
2018/09/23 14:30 LEMH 231430Z 24008KT 200V280 9999 FEW018 SCT026 26/22 Q1021
 
LEIB - Ibiza/Es Codola, Spain
Distance from station: OSO 165km
Actualización: 23/09/2018 16:30
Despejado
Despejado
 Viento del SSO
Viento: SSO 17 km/h
Temperatura: 28°C
Indice Calor: 30°C
Rocío: 21°C
Humedad: 66%
Barómetro: 1021 hPa
Resumen: Despejado
Visibility: greater than 10 km
2018/09/23 14:30 LEIB 231430Z 21009KT 160V250 CAVOK 28/21 Q1021 NOSIG
LEBL - Barcelona Airpor, Spain
Distance from station: NNO 225km
Actualización: 23/09/2018 16:30
Few Clouds
Few Clouds
 Viento del SSO
Viento: SSO 30 km/h
Temperatura: 27°C
Indice Calor: 29°C
Rocío: 22°C
Humedad: 74%
Barómetro: 1019 hPa
Clouds: Few Clouds
Visibility: 10 km
Cloud details: Few Clouds 610 m
2018/09/23 14:30 LEBL 231430Z 21016KT 9999 FEW020 27/22 Q1019 NOSIG
 
LEVC - Valencia (civ/Mi, Spain
Distance from station: NO 188km
Actualización: 23/09/2018 16:30
Few Clouds
Few Clouds
 Viento del SE
Viento: SE 15 km/h
Temperatura: 32°C
Rocío: 15°C
Humedad: 36%
Barómetro: 1020 hPa
Clouds: Few Clouds
Visibility: 10 km
Cloud details: Few Clouds 762 m
2018/09/23 14:30 LEVC 231430Z 14008KT 110V170 9999 FEW025 32/15 Q1020 NOSIG
LEGE - Gerona/Costa Bra, Spain
Distance from station: N 276km
Actualización: 23/09/2018 16:30
Few Clouds
Few Clouds
 Viento del S
Viento: S 11 km/h
Temperatura: 30°C
Indice Calor: 33°C
Rocío: 21°C
Humedad: 59%
Barómetro: 1019 hPa
Clouds: Few Clouds
Visibility: 10 km
Cloud details: Few Clouds 1829 m
2018/09/23 14:30 LEGE 231430Z 19006KT 150V230 9999 FEW060 30/21 Q1019
 
LEAL - Alicante/El Alte, Spain
Distance from station: OSO 344km
Actualización: 23/09/2018 16:30
Despejado
Despejado
 Viento del S
Viento: S 13 km/h
Temperatura: 30°C
Indice Calor: 29°C
Rocío: 15°C
Humedad: 40%
Barómetro: 1021 hPa
Resumen: Despejado
Visibility: greater than 10 km
2018/09/23 14:30 LEAL 231430Z 18007KT 120V250 CAVOK 30/15 Q1021 NOSIG
LEAM - Almeria Airport, Spain
Distance from station: SSO 56km
Actualización: 23/09/2018 16:30
Despejado
Despejado
 Viento del E
Viento: E 24 km/h
Temperatura: 35°C
Rocío: 13°C
Humedad: 26%
Barómetro: 1019 hPa
Resumen: Despejado
Visibility: greater than 10 km
2018/09/23 14:30 LEAM 231430Z 10013KT 070V130 CAVOK 35/13 Q1019
 
LEZG - Zaragoza (mil/Ci, Spain
Distance from station: NO 431km
Actualización: 23/09/2018 16:30
Few Clouds
Few Clouds
 Viento del NO
Viento: NO 9 km/h
Temperatura: 33°C
Rocío: 11°C
Humedad: 26%
Barómetro: 1020 hPa
Clouds: Few Clouds
Visibility: 10 km
Cloud details: Few Clouds 1219 m
2018/09/23 14:30 LEZG 231430Z 31005KT 270V010 9999 FEW040 33/11 Q1020
LEMD - Madrid/Barajas, Spain
Distance from station: ONO 234km
Actualización: 23/09/2018 16:30
Despejado
Despejado
 Viento del SSO
Viento: SSO 7 km/h, Racha: 30 km/h
Temperatura: 34°C
Rocío: 8°C
Humedad: 20%
Barómetro: 1022 hPa
Resumen: Despejado
Visibility: greater than 10 km
2018/09/23 14:30 LEMD 231430Z 20004G16KT CAVOK 34/08 Q1022 NOSIG
 
LEGR - Granada Airport, Spain
Distance from station: OSO 62km
Actualización: 23/09/2018 16:30
Despejado
Despejado
 Viento del OSO
Viento: OSO 7 km/h
Temperatura: 34°C
Rocío: 8°C
Humedad: 20%
Barómetro: 1022 hPa
Resumen: Despejado
Visibility: greater than 10 km
2018/09/23 14:30 LEGR 231430Z 25004KT 200V300 CAVOK 34/08 Q1022
LEMG - Malaga (civ/Mil), Spain
Distance from station: OSO 227km
Actualización: 23/09/2018 16:30
Despejado
Despejado
 Viento del ESE
Viento: ESE 11 km/h
Temperatura: 28°C
Indice Calor: 28°C
Rocío: 15°C
Humedad: 45%
Barómetro: 1020 hPa
Resumen: Despejado
Visibility: greater than 10 km
2018/09/23 14:30 LEMG 231430Z 12006KT 020V170 CAVOK 28/15 Q1020 NOSIG
 
LEZL - Sevilla (civ/Mil, Spain
Distance from station: S 318km
Actualización: 23/09/2018 16:30
Despejado
Despejado
 Viento del E
Viento: E 15 km/h
Temperatura: 37°C
Rocío: 9°C
Humedad: 18%
Barómetro: 1018 hPa
Resumen: Despejado
Visibility: greater than 10 km
2018/09/23 14:30 LEZL 231430Z 10008KT 060V150 CAVOK 37/09 Q1018 NOSIG
LEVT - Vitoria, Spain
Distance from station: NO 226km
Actualización: 23/09/2018 16:30
Few Clouds
Few Clouds
 Viento del NNE
Viento: NNE 33 km/h
Temperatura: 28°C
Indice Calor: 28°C
Rocío: 17°C
Humedad: 51%
Barómetro: 1024 hPa
Clouds: Few Clouds
Visibility: 10 km
Cloud details: Few Clouds 914 m
2018/09/23 14:30 LEVT 231430Z 03018KT 350V060 9999 FEW030 28/17 Q1024
 
LEBB - Bilbao/Sondica, Spain
Distance from station: NNO 235km
Actualización: 23/09/2018 16:30
Muy nuboso
Muy nuboso
 Viento del NO
Viento: NO 13 km/h
Temperatura: 23°C
Rocío: 19°C
Humedad: 78%
Barómetro: 1025 hPa
Clouds: Muy nuboso
Visibility: 10 km
Cloud details: Muy nuboso 427 m
2018/09/23 14:30 LEBB 231430Z 32007KT 280V360 9999 BKN014 23/19 Q1025 TEMPO BKN010
LESO - San Sebastian/Fu, Spain
Distance from station: N 231km
Actualización: 23/09/2018 16:30
Muy nuboso
Muy nuboso
 Viento del NO
Viento: NO 15 km/h
Temperatura: 23°C
Rocío: 20°C
Humedad: 83%
Barómetro: 1024 hPa
Clouds: Muy nuboso
Visibility: 10 km
Cloud details: Muy nuboso 518 m
2018/09/23 14:30 LESO 231430Z 31008KT 250V020 9999 BKN017 23/20 Q1024
 
LEVD - Valladolid(Mil/C, Spain
Distance from station: ONO 239km
Actualización: 23/09/2018 16:30
Despejado
Despejado
 Viento del NO
Viento: NO 15 km/h
Temperatura: 30°C
Rocío: 5°C
Humedad: 20%
Barómetro: 1025 hPa
Resumen: Despejado
Visibility: greater than 10 km
2018/09/23 14:30 LEVD 231430Z 32008KT 240V030 CAVOK 30/05 Q1025
LESA - Salamanca (civ/M, Spain
Distance from station: ONO 349km
Actualización: 23/09/2018 16:30
Despejado
Despejado
 Viento del NE
Viento: NE 2 km/h
Temperatura: 31°C
Rocío: 7°C
Humedad: 22%
Barómetro: 1025 hPa
Resumen: Despejado
Visibility: greater than 10 km
2018/09/23 14:30 LESA 231430Z 04001KT CAVOK 31/07 Q1025
 
LEXJ - Santander/Paraya, Spain
Distance from station: NNO 247km
Actualización: 23/09/2018 16:30
Cubierto
Cubierto
 Viento del O
Viento: O 15 km/h
Temperatura: 21°C
Rocío: 19°C
Humedad: 88%
Barómetro: 1025 hPa
Clouds: Cubierto
Visibility: 6 km
Cloud details: Parcialmente nuboso 274 m
Cubierto 366 m
2018/09/23 14:30 LEXJ 231430Z 27008KT 230V300 6000 SCT009 OVC012 21/19 Q1025
LEAS - Asturias/Aviles, Spain
Distance from station: NO 214km
Actualización: 23/09/2018 16:30
Muy nuboso
Muy nuboso
 Viento del O
Viento: O 15 km/h
Temperatura: 20°C
Rocío: 19°C
Humedad: 94%
Barómetro: 1026 hPa
Clouds: Muy nuboso
Visibility: 9 km
Cloud details: Few Clouds 152 m
Muy nuboso 183 m
2018/09/23 14:30 LEAS 231430Z 28008KT 250V320 9000 FEW005 BKN006 20/19 Q1026 NOSIG
 
LECO - La Coruna/Alvedr, Spain
Distance from station: ONO 222km
Actualización: 23/09/2018 16:30
Muy nuboso
Muy nuboso
 Viento del N
Viento: N 9 km/h
Temperatura: 22°C
Rocío: 19°C
Humedad: 83%
Barómetro: 1026 hPa
Clouds: Muy nuboso
Visibility: 10 km
Cloud details: Muy nuboso 792 m
2018/09/23 14:30 LECO 231430Z 01005KT 330V060 9999 BKN026 22/19 Q1026 NOSIG
LEVX - Vigo/Peinador, Spain
Distance from station: O 214km
Actualización: 23/09/2018 16:30
Despejado
Despejado
 Viento del N
Viento: N 11 km/h
Temperatura: 29°C
Indice Calor: 29°C
Rocío: 17°C
Humedad: 48%
Barómetro: 1024 hPa
Resumen: Despejado
Visibility: greater than 10 km
2018/09/23 14:30 LEVX 231430Z 01006KT 320V090 CAVOK 29/17 Q1024 NOSIG